Time;durP1;ratioP1;P1;durP2;ratioP2;P2;SDS_P1;SDS_P2;PMS_P1;PMS_P2;Temp;Humidity;BMP_temperature;BMP_pressure;BME280_temperature;BME280_humidity;BME280_pressure;Samples;Min_cycle;Max_cycle;Signal;HPM_P1;HPM_P2
2024/01/19 00:02:11;;;;;;;;;;;;;;;0.77;68.74;97402.44;5068031;28;19924;-58
2024/01/19 00:04:59;;;;;;;;;;;;;;;0.70;69.17;97390.38;5064011;28;20029;-58
2024/01/19 00:07:49;;;;;;;;;;;;;;;0.72;68.95;97409.63;5071952;28;19928;-59
2024/01/19 00:10:37;;;;;;;;;;;;;;;0.73;68.91;97413.91;5071174;28;20446;-60
2024/01/19 00:13:25;;;;;;;;;;;;;;;0.75;68.49;97414.47;5074962;28;20200;-59
2024/01/19 00:16:13;;;;;;;;;;;;;;;0.61;69.69;97424.00;5071634;28;19924;-60
2024/01/19 00:19:01;;;;;;;;;;;;;;;0.46;69.69;97422.84;5066737;28;19933;-58
2024/01/19 00:21:49;;;;;;;;;;;;;;;0.60;69.62;97433.88;5070522;28;19939;-56
2024/01/19 00:24:41;;;;;;;;;;;;;;;0.67;69.24;97436.31;5074298;28;20332;-59
2024/01/19 00:27:29;;;;;;;;;;;;;;;0.49;69.72;97451.72;5067557;28;19943;-58
2024/01/19 00:30:17;;;;;;;;;;;;;;;0.63;69.32;97443.25;5075538;28;19939;-58
2024/01/19 00:33:05;;;;;;;;;;;;;;;0.54;69.11;97450.16;5067126;28;20069;-58
2024/01/19 00:35:53;;;;;;;;;;;;;;;0.62;69.01;97449.66;5070065;28;19925;-58
2024/01/19 00:38:42;;;;;;;;;;;;;;;0.55;69.20;97452.56;5069051;28;19990;-59
2024/01/19 00:41:31;;;;;;;;;;;;;;;0.75;68.93;97457.25;5075145;28;20314;-60
2024/01/19 00:44:19;;;;;;;;;;;;;;;0.84;68.36;97466.34;5076591;28;19925;-59
2024/01/19 00:47:07;;;;;;;;;;;;;;;0.45;69.72;97469.34;5074206;28;19928;-58
2024/01/19 00:49:55;;;;;;;;;;;;;;;0.50;68.54;97471.25;5068038;28;20016;-59
2024/01/19 00:52:44;;;;;;;;;;;;;;;0.60;68.76;97486.56;5077683;28;20431;-59
2024/01/19 00:55:32;;;;;;;;;;;;;;;0.56;69.67;97490.78;5081054;28;19924;-62
2024/01/19 00:58:23;;;;;;;;;;;;;;;0.73;68.50;97492.22;5070858;28;21313;-58
2024/01/19 01:01:11;;;;;;;;;;;;;;;0.62;68.76;97500.44;5067008;28;20015;-59
2024/01/19 01:04:01;;;;;;;;;;;;;;;0.51;69.44;97505.72;5072156;28;20028;-60
2024/01/19 01:06:49;;;;;;;;;;;;;;;0.67;68.72;97503.16;5070875;28;19931;-58
2024/01/19 01:09:38;;;;;;;;;;;;;;;0.41;69.60;97516.34;5069932;28;20434;-59
2024/01/19 01:12:26;;;;;;;;;;;;;;;0.57;69.58;97519.94;5072721;28;19924;-60
2024/01/19 01:15:15;;;;;;;;;;;;;;;0.41;70.01;97516.34;5073373;28;19940;-60
2024/01/19 01:18:04;;;;;;;;;;;;;;;0.51;69.48;97520.97;5069835;28;19924;-58
2024/01/19 01:20:52;;;;;;;;;;;;;;;0.44;69.59;97525.72;5070730;28;19931;-59
2024/01/19 01:23:40;;;;;;;;;;;;;;;0.64;68.65;97530.41;5071604;28;19924;-58
2024/01/19 01:26:28;;;;;;;;;;;;;;;0.64;68.68;97535.75;5070632;28;20023;-59
2024/01/19 01:29:16;;;;;;;;;;;;;;;0.55;68.65;97537.31;5069553;28;19924;-58
2024/01/19 01:32:06;;;;;;;;;;;;;;;0.43;68.76;97532.94;5068719;28;19933;-60
2024/01/19 01:34:54;;;;;;;;;;;;;;;0.52;68.62;97541.28;5068443;28;19931;-61
2024/01/19 01:37:42;;;;;;;;;;;;;;;0.48;69.41;97540.16;5067319;28;19931;-59
2024/01/19 01:40:30;;;;;;;;;;;;;;;0.45;69.25;97551.38;5069819;28;19981;-58
2024/01/19 01:43:23;;;;;;;;;;;;;;;0.61;68.53;97557.66;5067053;28;19984;-60
2024/01/19 01:46:11;;;;;;;;;;;;;;;0.44;69.35;97558.59;5070532;28;19930;-59
2024/01/19 01:49:00;;;;;;;;;;;;;;;0.45;69.31;97559.41;5064609;28;20377;-58
2024/01/19 01:51:48;;;;;;;;;;;;;;;0.53;68.60;97566.94;5068844;28;19924;-59
2024/01/19 01:54:36;;;;;;;;;;;;;;;0.52;69.01;97568.81;5068150;28;20027;-58
2024/01/19 01:57:24;;;;;;;;;;;;;;;0.44;68.72;97571.97;5068960;28;20019;-58
2024/01/19 02:00:13;;;;;;;;;;;;;;;0.65;68.40;97569.47;5069105;28;20746;-59
2024/01/19 02:03:01;;;;;;;;;;;;;;;0.56;68.81;97576.31;5069437;28;19964;-58
2024/01/19 02:05:51;;;;;;;;;;;;;;;0.52;68.60;97582.16;5050128;28;20481;-58
2024/01/19 02:08:39;;;;;;;;;;;;;;;0.50;68.74;97580.81;5071137;28;19924;-59
2024/01/19 02:11:28;;;;;;;;;;;;;;;0.48;69.29;97590.94;5063723;28;19928;-59
2024/01/19 02:14:15;;;;;;;;;;;;;;;0.47;68.93;97590.16;5081106;28;19924;-58
2024/01/19 02:17:04;;;;;;;;;;;;;;;0.48;68.91;97593.63;5070643;28;20023;-59
2024/01/19 02:19:51;;;;;;;;;;;;;;;0.53;68.82;97585.66;5065336;28;19955;-60
2024/01/19 02:22:41;;;;;;;;;;;;;;;0.18;69.22;97594.16;5065137;28;19933;-59
2024/01/19 02:25:31;;;;;;;;;;;;;;;0.37;69.47;97589.25;5065090;28;20607;-59
2024/01/19 02:28:19;;;;;;;;;;;;;;;0.42;69.55;97595.44;5063513;28;20386;-59
2024/01/19 02:31:08;;;;;;;;;;;;;;;0.44;69.48;97601.34;5067519;28;19924;-58
2024/01/19 02:33:56;;;;;;;;;;;;;;;0.44;69.39;97614.72;5068305;28;20711;-61
2024/01/19 02:36:44;;;;;;;;;;;;;;;0.38;69.66;97617.59;5065254;28;20003;-58
2024/01/19 02:39:32;;;;;;;;;;;;;;;0.23;69.87;97616.38;5064386;28;20396;-59
2024/01/19 02:42:22;;;;;;;;;;;;;;;0.29;69.13;97611.91;5068448;28;19986;-59
2024/01/19 02:45:10;;;;;;;;;;;;;;;0.31;69.34;97620.47;5066281;28;20013;-58
2024/01/19 02:47:58;;;;;;;;;;;;;;;0.17;69.74;97624.59;5067937;28;20006;-58
2024/01/19 02:50:46;;;;;;;;;;;;;;;0.19;69.53;97619.81;5068983;28;19928;-60
2024/01/19 02:53:34;;;;;;;;;;;;;;;0.09;70.19;97628.50;5066964;28;19929;-58
2024/01/19 02:56:22;;;;;;;;;;;;;;;0.11;70.10;97631.75;5070718;28;20304;-59
2024/01/19 02:59:12;;;;;;;;;;;;;;;0.25;69.47;97640.16;5061362;28;20266;-59
2024/01/19 03:02:00;;;;;;;;;;;;;;;0.18;69.83;97644.91;5065127;28;19932;-58
2024/01/19 03:04:48;;;;;;;;;;;;;;;0.30;69.34;97640.22;5069273;28;20021;-59
2024/01/19 03:07:36;;;;;;;;;;;;;;;0.18;69.99;97650.25;5060666;28;19931;-60
2024/01/19 03:10:25;;;;;;;;;;;;;;;0.09;70.02;97657.91;5067439;28;19932;-59
2024/01/19 03:13:13;;;;;;;;;;;;;;;0.17;69.88;97659.34;5070098;28;20385;-59
2024/01/19 03:16:05;;;;;;;;;;;;;;;0.15;69.64;97666.78;5063612;28;19932;-58
2024/01/19 03:18:55;;;;;;;;;;;;;;;-0.05;71.13;97668.16;5069295;28;19925;-60
2024/01/19 03:21:46;;;;;;;;;;;;;;;0.14;70.42;97662.50;5069435;28;20397;-59
2024/01/19 03:24:35;;;;;;;;;;;;;;;0.05;70.58;97667.47;5061153;28;19933;-59
2024/01/19 03:27:23;;;;;;;;;;;;;;;0.11;70.38;97671.03;5069729;28;19925;-58
2024/01/19 03:30:11;;;;;;;;;;;;;;;0.16;70.02;97663.03;5069669;28;19928;-59
2024/01/19 03:33:01;;;;;;;;;;;;;;;0.14;70.23;97670.50;5063629;28;19932;-59
2024/01/19 03:35:49;;;;;;;;;;;;;;;0.05;70.47;97675.47;5064984;28;20050;-61
2024/01/19 03:38:37;;;;;;;;;;;;;;;-0.01;71.00;97679.94;5071792;28;19979;-59
2024/01/19 03:41:27;;;;;;;;;;;;;;;0.02;71.03;97677.84;5070687;28;20328;-63
2024/01/19 03:44:15;;;;;;;;;;;;;;;-0.03;71.28;97687.41;5070954;28;19958;-59
2024/01/19 03:47:03;;;;;;;;;;;;;;;-0.13;71.54;97687.28;5073768;28;20285;-59
2024/01/19 03:49:52;;;;;;;;;;;;;;;-0.09;70.91;97680.41;5072760;28;19932;-60
2024/01/19 03:52:41;;;;;;;;;;;;;;;0.03;70.96;97680.25;5069268;28;20072;-59
2024/01/19 03:55:29;;;;;;;;;;;;;;;0.08;71.13;97684.88;5063410;28;19931;-60
2024/01/19 03:58:17;;;;;;;;;;;;;;;-0.05;71.41;97684.19;5064810;28;19975;-60
2024/01/19 04:01:05;;;;;;;;;;;;;;;0.02;71.28;97689.34;5072551;28;19924;-58
2024/01/19 04:03:53;;;;;;;;;;;;;;;0.16;70.81;97695.09;5068675;28;20304;-59
2024/01/19 04:06:42;;;;;;;;;;;;;;;0.18;70.75;97698.34;5059572;28;19931;-63
2024/01/19 04:09:31;;;;;;;;;;;;;;;0.15;70.99;97704.16;5066105;28;20404;-59
2024/01/19 04:12:19;;;;;;;;;;;;;;;0.07;70.80;97708.09;5061529;28;19925;-59
2024/01/19 04:15:08;;;;;;;;;;;;;;;0.08;71.21;97703.56;5069349;28;19924;-58
2024/01/19 04:17:56;;;;;;;;;;;;;;;0.19;70.53;97703.44;5064664;28;20329;-59
2024/01/19 04:20:44;;;;;;;;;;;;;;;0.08;70.86;97703.56;5067617;28;19924;-63
2024/01/19 04:23:34;;;;;;;;;;;;;;;0.03;71.09;97706.16;5063955;28;19928;-59
2024/01/19 04:26:22;;;;;;;;;;;;;;;0.08;71.52;97714.25;5062064;28;20275;-59
2024/01/19 04:29:10;;;;;;;;;;;;;;;-0.06;71.76;97722.59;5066130;28;19939;-58
2024/01/19 04:31:58;;;;;;;;;;;;;;;0.12;70.64;97718.84;5064624;28;19951;-59
2024/01/19 04:34:47;;;;;;;;;;;;;;;0.26;71.23;97719.25;5068389;28;19928;-58
2024/01/19 04:37:35;;;;;;;;;;;;;;;0.23;70.74;97722.44;5069608;28;20078;-59
2024/01/19 04:40:24;;;;;;;;;;;;;;;0.21;70.65;97725.38;5065639;28;19931;-60
2024/01/19 04:43:12;;;;;;;;;;;;;;;0.19;71.43;97729.34;5076839;28;19947;-60
2024/01/19 04:46:00;;;;;;;;;;;;;;;0.17;71.18;97737.63;5068060;28;19970;-59
2024/01/19 04:48:48;;;;;;;;;;;;;;;0.23;70.55;97741.16;5068428;28;20734;-59
2024/01/19 04:51:37;;;;;;;;;;;;;;;0.19;70.95;97740.81;5069805;28;20344;-58
2024/01/19 04:54:25;;;;;;;;;;;;;;;0.16;71.18;97745.84;5071677;28;20313;-62
2024/01/19 04:57:18;;;;;;;;;;;;;;;0.14;71.44;97748.78;5072580;28;19924;-60
2024/01/19 05:00:06;;;;;;;;;;;;;;;0.08;71.47;97748.97;5075790;28;19982;-59
2024/01/19 05:02:55;;;;;;;;;;;;;;;0.09;71.64;97753.25;5068326;28;20393;-58
2024/01/19 05:05:43;;;;;;;;;;;;;;;0.07;72.16;97750.84;5071219;28;20062;-59
2024/01/19 05:08:31;;;;;;;;;;;;;;;0.25;71.40;97747.03;5070854;28;19924;-59
2024/01/19 05:11:19;;;;;;;;;;;;;;;0.16;70.46;97754.69;5070573;28;19931;-59
2024/01/19 05:14:09;;;;;;;;;;;;;;;0.09;71.33;97755.91;5072433;28;20464;-58
2024/01/19 05:16:57;;;;;;;;;;;;;;;0.14;71.50;97756.00;5069970;28;20408;-60
2024/01/19 05:19:45;;;;;;;;;;;;;;;0.22;70.72;97764.38;5071250;28;19925;-60
2024/01/19 05:22:33;;;;;;;;;;;;;;;0.43;70.96;97760.09;5069617;28;19928;-59
2024/01/19 05:25:21;;;;;;;;;;;;;;;0.50;69.92;97767.94;5058313;28;20015;-60
2024/01/19 05:28:09;;;;;;;;;;;;;;;0.75;69.36;97783.44;5072877;28;19939;-58
2024/01/19 05:30:58;;;;;;;;;;;;;;;0.50;69.85;97779.41;5067318;28;19998;-58
2024/01/19 05:33:46;;;;;;;;;;;;;;;0.74;69.94;97773.78;5071269;28;20433;-59
2024/01/19 05:36:35;;;;;;;;;;;;;;;0.73;69.30;97785.56;5069265;28;19924;-58
2024/01/19 05:39:23;;;;;;;;;;;;;;;0.76;69.24;97785.88;5071011;28;19931;-59
2024/01/19 05:42:11;;;;;;;;;;;;;;;0.99;68.20;97802.69;5064516;28;19924;-59
2024/01/19 05:44:59;;;;;;;;;;;;;;;0.74;68.75;97798.66;5069166;28;20457;-59
2024/01/19 05:47:49;;;;;;;;;;;;;;;0.71;68.30;97803.72;5068537;28;20015;-59
2024/01/19 05:50:37;;;;;;;;;;;;;;;0.63;68.74;97807.63;5070631;28;19925;-59
2024/01/19 05:53:25;;;;;;;;;;;;;;;0.74;67.88;97813.91;5070819;28;20301;-60
2024/01/19 05:56:14;;;;;;;;;;;;;;;0.37;69.70;97819.06;5064218;28;19925;-62
2024/01/19 05:59:02;;;;;;;;;;;;;;;0.50;68.98;97827.53;5069535;28;19924;-59
2024/01/19 06:01:50;;;;;;;;;;;;;;;0.52;69.11;97830.75;5068319;28;19929;-61
2024/01/19 06:04:41;;;;;;;;;;;;;;;0.54;69.78;97848.44;5067145;28;19932;-58
2024/01/19 06:07:32;;;;;;;;;;;;;;;0.46;69.61;97847.78;5069568;28;19928;-60
2024/01/19 06:10:20;;;;;;;;;;;;;;;0.54;68.71;97853.78;5064658;28;20085;-59
2024/01/19 06:13:08;;;;;;;;;;;;;;;0.56;67.93;97862.34;5070094;28;20015;-59
2024/01/19 06:15:56;;;;;;;;;;;;;;;0.49;68.35;97866.03;5063589;28;19990;-58
2024/01/19 06:18:46;;;;;;;;;;;;;;;0.23;69.09;97872.88;5066782;28;20368;-57
2024/01/19 06:21:35;;;;;;;;;;;;;;;0.45;68.85;97862.22;5064031;28;19950;-58
2024/01/19 06:24:25;;;;;;;;;;;;;;;0.41;68.97;97866.44;5064643;28;20289;-59
2024/01/19 06:27:13;;;;;;;;;;;;;;;0.62;68.31;97880.06;5068436;28;20292;-60
2024/01/19 06:30:02;;;;;;;;;;;;;;;0.57;68.82;97880.00;5069863;28;19925;-59
2024/01/19 06:32:52;;;;;;;;;;;;;;;0.59;68.32;97888.59;5074012;28;19924;-59
2024/01/19 06:35:40;;;;;;;;;;;;;;;0.60;68.13;97888.34;5065161;28;19952;-60
2024/01/19 06:38:29;;;;;;;;;;;;;;;0.60;67.91;97899.03;5071048;28;20026;-60
2024/01/19 06:41:21;;;;;;;;;;;;;;;0.44;68.09;97900.69;5066437;28;19924;-59
2024/01/19 06:44:10;;;;;;;;;;;;;;;0.45;68.01;97904.19;5070830;28;20009;-59
2024/01/19 06:46:58;;;;;;;;;;;;;;;0.47;68.09;97910.88;5067653;28;20011;-61
2024/01/19 06:49:47;;;;;;;;;;;;;;;0.51;67.38;97912.00;5073018;28;20524;-60
2024/01/19 06:52:36;;;;;;;;;;;;;;;0.45;67.58;97926.34;5070292;28;20005;-58
2024/01/19 06:55:25;;;;;;;;;;;;;;;0.72;66.30;97928.34;5059942;28;20015;-59
2024/01/19 06:58:13;;;;;;;;;;;;;;;0.56;66.98;97932.66;5067589;28;20015;-60
2024/01/19 07:01:01;;;;;;;;;;;;;;;0.62;67.10;97936.22;5071235;28;19928;-59
2024/01/19 07:03:49;;;;;;;;;;;;;;;0.42;67.51;97945.53;5068607;28;20435;-58
2024/01/19 07:06:37;;;;;;;;;;;;;;;0.50;67.67;97942.47;5062404;28;20385;-60
2024/01/19 07:09:26;;;;;;;;;;;;;;;0.60;67.07;97941.00;5069989;28;19924;-58
2024/01/19 07:12:16;;;;;;;;;;;;;;;0.32;67.75;97950.78;5067719;28;19974;-59
2024/01/19 07:15:07;;;;;;;;;;;;;;;0.41;67.12;97964.50;5069295;28;20449;-59
2024/01/19 07:17:55;;;;;;;;;;;;;;;0.59;67.20;97966.13;5064600;28;20011;-59
2024/01/19 07:20:43;;;;;;;;;;;;;;;0.14;67.23;97977.72;5065351;28;19932;-59
2024/01/19 07:23:32;;;;;;;;;;;;;;;0.33;67.69;97980.97;5067664;28;19924;-59
2024/01/19 07:26:24;;;;;;;;;;;;;;;0.44;67.29;97988.91;5069226;28;19929;-63
2024/01/19 07:29:13;;;;;;;;;;;;;;;0.52;67.25;97993.81;5063975;28;20015;-59
2024/01/19 07:32:03;;;;;;;;;;;;;;;0.50;67.16;97995.94;5068361;28;20279;-60
2024/01/19 07:34:51;;;;;;;;;;;;;;;0.37;67.63;97993.56;5066535;28;19928;-59
2024/01/19 07:37:39;;;;;;;;;;;;;;;0.38;67.75;97995.22;5063574;28;19925;-59
2024/01/19 07:40:28;;;;;;;;;;;;;;;0.44;67.72;98001.44;5069378;28;19924;-59
2024/01/19 07:43:16;;;;;;;;;;;;;;;0.29;67.11;98009.22;5069418;28;19924;-60
2024/01/19 07:46:06;;;;;;;;;;;;;;;0.29;66.68;98010.03;5069223;28;19957;-59
2024/01/19 07:48:54;;;;;;;;;;;;;;;0.27;66.66;98017.50;5068965;28;19924;-62
2024/01/19 07:51:42;;;;;;;;;;;;;;;0.28;66.03;98024.44;5066830;28;19959;-59
2024/01/19 07:54:31;;;;;;;;;;;;;;;0.30;65.84;98030.34;5066059;28;20556;-59
2024/01/19 07:57:19;;;;;;;;;;;;;;;0.49;65.83;98047.78;5065927;28;19925;-63
2024/01/19 08:00:08;;;;;;;;;;;;;;;0.57;64.89;98053.78;5067909;28;20073;-59
2024/01/19 08:02:58;;;;;;;;;;;;;;;0.51;64.97;98051.00;5063126;28;19924;-59
2024/01/19 08:05:47;;;;;;;;;;;;;;;0.54;65.38;98059.63;5068777;28;19928;-59
2024/01/19 08:08:35;;;;;;;;;;;;;;;0.46;65.72;98056.28;5062282;28;20562;-60
2024/01/19 08:11:23;;;;;;;;;;;;;;;0.37;66.47;98060.38;5064750;28;20023;-59
2024/01/19 08:14:13;;;;;;;;;;;;;;;0.40;66.36;98072.47;5066871;28;20361;-60
2024/01/19 08:17:01;;;;;;;;;;;;;;;0.22;66.68;98073.50;5065317;28;19929;-59
2024/01/19 08:19:50;;;;;;;;;;;;;;;0.54;65.85;98075.66;5060859;28;19956;-59
2024/01/19 08:22:38;;;;;;;;;;;;;;;0.56;65.40;98084.22;5068922;28;20352;-60
2024/01/19 08:25:26;;;;;;;;;;;;;;;0.41;65.05;98088.25;5069154;28;20061;-60
2024/01/19 08:28:15;;;;;;;;;;;;;;;0.34;66.41;98087.63;5058768;28;19924;-59
2024/01/19 08:31:03;;;;;;;;;;;;;;;0.38;66.39;98099.44;5072537;28;19931;-58
2024/01/19 08:33:51;;;;;;;;;;;;;;;0.50;65.90;98096.72;5071882;28;20377;-59
2024/01/19 08:36:41;;;;;;;;;;;;;;;0.58;65.45;98101.63;5063479;28;20565;-59
2024/01/19 08:39:32;;;;;;;;;;;;;;;0.51;64.72;98099.13;5059404;28;19929;-60
2024/01/19 08:42:21;;;;;;;;;;;;;;;0.62;64.86;98100.09;5066793;28;19968;-60
2024/01/19 08:45:09;;;;;;;;;;;;;;;0.55;64.87;98099.47;5069093;28;19931;-59
2024/01/19 08:47:57;;;;;;;;;;;;;;;0.48;64.80;98109.47;5066617;28;19932;-63
2024/01/19 08:50:45;;;;;;;;;;;;;;;0.71;64.04;98111.22;5074118;28;19931;-59
2024/01/19 08:53:35;;;;;;;;;;;;;;;0.51;64.25;98123.19;5064081;28;19939;-59
2024/01/19 08:56:23;;;;;;;;;;;;;;;0.59;64.36;98126.53;5069125;28;20401;-59
2024/01/19 08:59:12;;;;;;;;;;;;;;;0.65;63.07;98120.22;5070425;28;19925;-59
2024/01/19 09:02:00;;;;;;;;;;;;;;;0.57;63.92;98128.63;5065601;28;20513;-59
2024/01/19 09:04:49;;;;;;;;;;;;;;;0.63;64.39;98128.47;5067993;28;20370;-59
2024/01/19 09:07:38;;;;;;;;;;;;;;;0.75;63.91;98137.25;5061345;28;20005;-58
2024/01/19 09:10:29;;;;;;;;;;;;;;;0.62;63.95;98137.53;5072230;28;20398;-62
2024/01/19 09:13:17;;;;;;;;;;;;;;;0.76;64.01;98138.06;5071763;28;19962;-58
2024/01/19 09:16:06;;;;;;;;;;;;;;;0.68;64.41;98141.09;5070637;28;19944;-59
2024/01/19 09:18:55;;;;;;;;;;;;;;;0.95;63.01;98157.34;5072710;28;20021;-58
2024/01/19 09:21:44;;;;;;;;;;;;;;;0.82;63.10;98153.13;5068363;28;19924;-60
2024/01/19 09:24:33;;;;;;;;;;;;;;;0.95;63.35;98162.69;5065566;28;19930;-60
2024/01/19 09:27:22;;;;;;;;;;;;;;;0.68;64.07;98176.69;5070833;28;20319;-60
2024/01/19 09:30:10;;;;;;;;;;;;;;;1.00;63.42;98184.97;5066444;28;19924;-59
2024/01/19 09:32:58;;;;;;;;;;;;;;;1.09;63.05;98193.41;5072538;28;20002;-59
2024/01/19 09:35:47;;;;;;;;;;;;;;;0.81;62.90;98204.19;5065878;28;19978;-60
2024/01/19 09:38:37;;;;;;;;;;;;;;;1.04;62.71;98215.56;5070817;28;19931;-59
2024/01/19 09:41:26;;;;;;;;;;;;;;;0.96;63.44;98226.66;5063155;28;20015;-58
2024/01/19 09:44:18;;;;;;;;;;;;;;;1.12;62.38;98224.22;5069094;28;20921;-59
2024/01/19 09:47:15;;;;;;;;;;;;;;;0.48;62.89;98229.78;5072147;28;20560;-59
2024/01/19 09:50:04;;;;;;;;;;;;;;;0.71;63.66;98234.22;5070994;28;19936;-60
2024/01/19 09:52:53;;;;;;;;;;;;;;;0.74;64.03;98237.22;5072006;28;19924;-59
2024/01/19 09:55:41;;;;;;;;;;;;;;;1.01;62.08;98241.97;5070454;28;19944;-59
2024/01/19 09:58:30;;;;;;;;;;;;;;;1.08;61.06;98241.84;5068797;28;19924;-60
2024/01/19 10:01:19;;;;;;;;;;;;;;;1.06;60.56;98247.41;5071856;28;19924;-60
2024/01/19 10:04:10;;;;;;;;;;;;;;;1.29;60.85;98244.59;5071349;28;20446;-60
2024/01/19 10:06:58;;;;;;;;;;;;;;;1.20;61.09;98254.09;5068838;28;20312;-59
2024/01/19 10:09:49;;;;;;;;;;;;;;;1.26;62.17;98257.66;5105697;22;19934;-74
2024/01/19 10:12:39;;;;;;;;;;;;;;;1.15;61.39;98258.53;5087855;28;20450;-72
2024/01/19 10:15:27;;;;;;;;;;;;;;;1.24;61.39;98260.59;5085742;28;19924;-76
2024/01/19 10:18:17;;;;;;;;;;;;;;;1.08;61.58;98260.56;5090363;28;19924;-76
2024/01/19 10:21:06;;;;;;;;;;;;;;;1.17;60.72;98267.13;5089146;28;20007;-75
2024/01/19 10:24:01;;;;;;;;;;;;;;;0.87;60.14;98264.75;5090274;28;19930;-74
2024/01/19 10:26:52;;;;;;;;;;;;;;;0.97;61.17;98268.41;5085841;28;19924;-76
2024/01/19 10:29:40;;;;;;;;;;;;;;;0.93;59.99;98277.16;5089511;28;19935;-80
2024/01/19 10:32:30;;;;;;;;;;;;;;;0.70;60.09;98284.22;5077846;28;20303;-74
2024/01/19 10:35:20;;;;;;;;;;;;;;;1.08;58.86;98295.34;5086362;28;20510;-75
2024/01/19 10:38:08;;;;;;;;;;;;;;;1.01;58.92;98285.63;5087625;28;20005;-76
2024/01/19 10:40:58;;;;;;;;;;;;;;;1.25;57.66;98285.47;5082139;28;19932;-73
2024/01/19 10:43:46;;;;;;;;;;;;;;;1.36;58.22;98287.25;5083559;28;19924;-73
2024/01/19 10:46:35;;;;;;;;;;;;;;;1.50;57.27;98288.59;5093301;28;19970;-90
2024/01/19 10:49:24;;;;;;;;;;;;;;;1.40;57.62;98293.78;5081925;28;20382;-76
2024/01/19 10:52:13;;;;;;;;;;;;;;;1.21;57.38;98295.84;5085006;28;19928;-73
2024/01/19 10:55:03;;;;;;;;;;;;;;;1.43;57.85;98297.81;5084048;28;20334;-76
2024/01/19 10:57:52;;;;;;;;;;;;;;;1.21;56.86;98289.69;5081807;28;19924;-74
2024/01/19 11:00:41;;;;;;;;;;;;;;;1.27;57.45;98289.53;5099065;28;19969;-77
2024/01/19 11:03:30;;;;;;;;;;;;;;;1.53;56.91;98288.06;5083466;28;19931;-75
2024/01/19 11:06:19;;;;;;;;;;;;;;;1.68;57.44;98279.47;5080750;28;20299;-74
2024/01/19 11:09:09;;;;;;;;;;;;;;;1.80;54.98;98282.06;5087260;28;19928;-75
2024/01/19 11:11:58;;;;;;;;;;;;;;;1.90;56.20;98287.56;5089984;28;19932;-74
2024/01/19 11:14:47;;;;;;;;;;;;;;;2.13;55.72;98281.22;5082413;28;19931;-73
2024/01/19 11:17:35;;;;;;;;;;;;;;;1.83;56.29;98276.22;5089464;28;19945;-73
2024/01/19 11:20:24;;;;;;;;;;;;;;;1.81;56.48;98279.16;5085557;28;20454;-75
2024/01/19 11:23:12;;;;;;;;;;;;;;;1.93;55.70;98287.09;5083600;28;19935;-73
2024/01/19 11:26:07;;;;;;;;;;;;;;;1.86;56.56;98296.34;5086163;28;19924;-73
2024/01/19 11:28:55;;;;;;;;;;;;;;;1.99;56.25;98290.66;5088458;28;19924;-74
2024/01/19 11:31:45;;;;;;;;;;;;;;;1.66;57.20;98294.19;5085809;28;20317;-72
2024/01/19 11:34:45;;;;;;;;;;;;;;;1.44;57.73;98300.28;5083434;28;19924;-72
2024/01/19 11:37:41;;;;;;;;;;;;;;;1.63;57.44;98291.97;5081599;28;19923;-73
2024/01/19 11:40:48;;;;;;;;;;;;;;;1.87;57.31;98284.59;5082383;28;19928;-72
2024/01/19 11:43:38;;;;;;;;;;;;;;;1.78;57.76;98289.53;5083184;28;20422;-72
2024/01/19 11:46:41;;;;;;;;;;;;;;;1.95;55.80;98289.50;5085130;28;19935;-72
2024/01/19 11:49:46;;;;;;;;;;;;;;;1.85;57.08;98284.81;5080596;28;19951;-72
2024/01/19 11:52:38;;;;;;;;;;;;;;;2.00;55.38;98293.06;5082676;28;19924;-72
2024/01/19 11:55:41;;;;;;;;;;;;;;;1.68;55.70;98297.41;5080063;28;19935;-73
2024/01/19 11:58:30;;;;;;;;;;;;;;;1.92;55.26;98306.91;5085739;28;19924;-72
2024/01/19 12:01:20;;;;;;;;;;;;;;;2.26;55.56;98309.53;5088716;28;19924;-72
2024/01/19 12:04:08;;;;;;;;;;;;;;;2.05;55.21;98303.88;5082722;28;19927;-72
2024/01/19 12:07:02;;;;;;;;;;;;;;;2.17;55.44;98303.75;5083312;28;19959;-72
2024/01/19 12:10:05;;;;;;;;;;;;;;;2.32;54.43;98300.47;5085900;28;19928;-72
2024/01/19 12:12:53;;;;;;;;;;;;;;;2.22;54.40;98311.88;5087095;28;20011;-72
2024/01/19 12:15:41;;;;;;;;;;;;;;;2.29;54.73;98323.25;5085789;28;19925;-75
2024/01/19 12:18:31;;;;;;;;;;;;;;;2.22;54.61;98321.78;5084160;28;20474;-75
2024/01/19 12:21:19;;;;;;;;;;;;;;;2.25;55.49;98322.13;5081591;28;20000;-74
2024/01/19 12:24:07;;;;;;;;;;;;;;;2.14;55.56;98316.88;5096732;28;19924;-74
2024/01/19 12:26:55;;;;;;;;;;;;;;;2.22;54.16;98321.78;5084718;28;19924;-78
2024/01/19 12:29:44;;;;;;;;;;;;;;;1.90;54.93;98319.72;5082382;28;20062;-74
2024/01/19 12:32:32;;;;;;;;;;;;;;;1.79;55.04;98323.31;5082498;28;20333;-72
2024/01/19 12:35:22;;;;;;;;;;;;;;;1.88;55.69;98327.19;5082498;28;20470;-78
2024/01/19 12:38:12;;;;;;;;;;;;;;;1.84;55.05;98336.78;5076246;28;19932;-72
2024/01/19 12:41:04;;;;;;;;;;;;;;;1.89;54.59;98333.38;5083458;28;20037;-73
2024/01/19 12:43:52;;;;;;;;;;;;;;;1.99;54.69;98333.53;5081994;28;19925;-74
2024/01/19 12:46:46;;;;;;;;;;;;;;;1.79;55.61;98325.97;5086984;28;19924;-74
2024/01/19 12:49:35;;;;;;;;;;;;;;;1.53;56.37;98336.28;5076184;28;19932;-73
2024/01/19 12:52:31;;;;;;;;;;;;;;;1.88;55.67;98331.75;5078269;28;19940;-74
2024/01/19 12:55:26;;;;;;;;;;;;;;;1.76;56.44;98335.34;5077422;28;19936;-74
2024/01/19 12:58:21;;;;;;;;;;;;;;;1.54;56.83;98340.56;5080684;28;19924;-80
2024/01/19 13:01:09;;;;;;;;;;;;;;;1.69;56.95;98340.03;5097324;28;19925;-72
2024/01/19 13:03:57;;;;;;;;;;;;;;;1.90;56.73;98335.00;5086704;28;19997;-74
2024/01/19 13:06:45;;;;;;;;;;;;;;;2.03;56.74;98332.78;5085304;28;20071;-74
2024/01/19 13:09:35;;;;;;;;;;;;;;;1.81;57.49;98330.06;5079609;28;19924;-76
2024/01/19 13:12:23;;;;;;;;;;;;;;;1.95;56.65;98337.75;5084593;28;20025;-74
2024/01/19 13:15:11;;;;;;;;;;;;;;;2.19;56.91;98335.69;5104838;28;20062;-73
2024/01/19 13:18:10;;;;;;;;;;;;;;;2.03;56.83;98340.84;5086316;28;19924;-75
2024/01/19 13:21:00;;;;;;;;;;;;;;;2.18;55.85;98339.41;5083373;28;20395;-75
2024/01/19 13:23:48;;;;;;;;;;;;;;;2.09;56.33;98342.53;5077241;28;19971;-75
2024/01/19 13:26:37;;;;;;;;;;;;;;;2.46;55.62;98333.13;5087999;28;19958;-75
2024/01/19 13:29:25;;;;;;;;;;;;;;;2.28;56.01;98353.78;5089774;28;19931;-77
2024/01/19 13:32:14;;;;;;;;;;;;;;;2.30;56.93;98346.31;5085262;28;19960;-78
2024/01/19 13:35:03;;;;;;;;;;;;;;;2.21;55.96;98346.97;5081474;28;19943;-77
2024/01/19 13:37:51;;;;;;;;;;;;;;;2.28;56.93;98355.66;5074550;28;19932;-77
2024/01/19 13:40:39;;;;;;;;;;;;;;;2.51;55.35;98363.50;5086254;28;20654;-78
2024/01/19 13:43:28;;;;;;;;;;;;;;;2.40;54.42;98371.63;5089074;28;19997;-77
2024/01/19 13:46:16;;;;;;;;;;;;;;;2.61;54.09;98378.91;5092004;28;20415;-80
2024/01/19 13:49:04;;;;;;;;;;;;;;;2.15;55.93;98380.13;5083708;28;19928;-75
2024/01/19 13:51:53;;;;;;;;;;;;;;;2.41;55.86;98373.28;5086006;28;19942;-77
2024/01/19 13:54:41;;;;;;;;;;;;;;;2.47;54.68;98378.44;5085049;28;20413;-74
2024/01/19 13:57:29;;;;;;;;;;;;;;;2.13;56.45;98380.38;5085481;28;20371;-76
2024/01/19 14:00:21;;;;;;;;;;;;;;;2.07;56.03;98386.69;5097537;28;19928;-75
2024/01/19 14:03:09;;;;;;;;;;;;;;;1.95;56.78;98386.78;5091189;28;20506;-76
2024/01/19 14:05:57;;;;;;;;;;;;;;;1.74;58.44;98395.53;5086262;28;19924;-75
2024/01/19 14:08:46;;;;;;;;;;;;;;;2.00;58.17;98400.28;5085445;28;20846;-81
2024/01/19 14:11:34;;;;;;;;;;;;;;;2.03;57.32;98404.34;5084019;28;20015;-74
2024/01/19 14:14:23;;;;;;;;;;;;;;;1.94;58.41;98406.59;5089395;28;19924;-76
2024/01/19 14:17:13;;;;;;;;;;;;;;;1.95;58.09;98410.91;5086664;28;20430;-76
2024/01/19 14:20:02;;;;;;;;;;;;;;;1.95;58.75;98421.63;5085262;28;19924;-75
2024/01/19 14:22:50;;;;;;;;;;;;;;;1.78;59.69;98423.47;5094873;28;20330;-76
2024/01/19 14:25:38;;;;;;;;;;;;;;;2.01;58.97;98433.22;5085234;28;19930;-77
2024/01/19 14:28:27;;;;;;;;;;;;;;;2.18;58.35;98433.22;5097820;28;19924;-75
2024/01/19 14:31:15;;;;;;;;;;;;;;;2.11;58.84;98444.13;5088293;28;19936;-77
2024/01/19 14:34:04;;;;;;;;;;;;;;;1.96;59.40;98443.88;5093715;28;19924;-73
2024/01/19 14:36:52;;;;;;;;;;;;;;;1.78;59.61;98444.91;5089779;28;19977;-85
2024/01/19 14:39:40;;;;;;;;;;;;;;;1.99;59.74;98448.75;5081200;28;19963;-80
2024/01/19 14:42:29;;;;;;;;;;;;;;;1.61;59.01;98449.44;5083369;28;19924;-76
2024/01/19 14:45:20;;;;;;;;;;;;;;;1.59;60.26;98455.00;5088312;28;19924;-74
2024/01/19 14:48:13;;;;;;;;;;;;;;;1.17;60.75;98460.66;5090656;28;20341;-74
2024/01/19 14:51:03;;;;;;;;;;;;;;;1.38;60.17;98461.84;5085064;28;20383;-75
2024/01/19 14:53:52;;;;;;;;;;;;;;;1.36;61.03;98457.78;5081755;28;19924;-75